Time;durP1;ratioP1;P1;durP2;ratioP2;P2;SDS_P1;SDS_P2;PMS_P1;PMS_P2;Temp;Humidity;BMP_temperature;BMP_pressure;BME280_temperature;BME280_humidity;BME280_pressure;Samples;Min_cycle;Max_cycle;Signal;HPM_P1;HPM_P2
2023/03/26 00:00:42;;;;;;;12.85;1.70;;;9.20;99.90;;;;;;5048990;28;20416;-83
2023/03/26 00:03:09;;;;;;;;;;;9.10;99.90;;;;;;5053260;28;20051;-83
2023/03/26 00:05:34;;;;;;;11.15;2.42;;;9.10;99.90;;;;;;5049398;28;20380;-82
2023/03/26 00:08:01;;;;;;;13.73;2.55;;;9.10;99.90;;;;;;5037862;28;20017;-82
2023/03/26 00:10:27;;;;;;;14.65;2.00;;;9.10;99.90;;;;;;5043314;28;20029;-82
2023/03/26 00:12:53;;;;;;;17.83;2.25;;;9.10;99.90;;;;;;5051577;28;20025;-83
2023/03/26 00:15:19;;;;;;;8.65;1.95;;;9.10;99.90;;;;;;5048292;28;20191;-82
2023/03/26 00:17:47;;;;;;;23.70;2.78;;;9.10;99.90;;;;;;5054413;28;20074;-83
2023/03/26 00:20:13;;;;;;;25.60;3.17;;;9.10;99.90;;;;;;5052895;28;20040;-82
2023/03/26 00:22:40;;;;;;;16.48;2.00;;;9.10;99.90;;;;;;5047074;28;20033;-82
2023/03/26 00:25:06;;;;;;;11.38;3.35;;;9.00;99.90;;;;;;5052068;28;20174;-82
2023/03/26 00:27:33;;;;;;;9.32;2.28;;;9.10;99.90;;;;;;5051796;28;20028;-82
2023/03/26 00:29:59;;;;;;;12.45;2.05;;;9.10;99.90;;;;;;5054581;28;20024;-82
2023/03/26 00:32:27;;;;;;;11.68;2.55;;;9.10;99.90;;;;;;5053409;28;20029;-82
2023/03/26 00:34:56;;;;;;;14.00;2.67;;;9.10;99.90;;;;;;5054378;28;20029;-82
2023/03/26 00:37:25;;;;;;;23.45;2.70;;;9.10;99.90;;;;;;5053005;28;20033;-82
2023/03/26 00:39:52;;;;;;;17.40;2.67;;;9.20;99.90;;;;;;5053027;28;20036;-82
2023/03/26 00:42:18;;;;;;;11.77;2.00;;;9.20;99.90;;;;;;5054266;28;20032;-81
2023/03/26 00:44:44;;;;;;;18.63;2.25;;;9.10;99.90;;;;;;5054157;28;20091;-80
2023/03/26 00:47:10;;;;;;;20.77;3.40;;;9.10;99.90;;;;;;5054015;28;20057;-81
2023/03/26 00:49:35;;;;;;;24.70;3.50;;;9.10;99.90;;;;;;5053126;28;20512;-81
2023/03/26 00:52:02;;;;;;;24.13;2.90;;;9.10;99.90;;;;;;5053236;28;20021;-82
2023/03/26 00:54:28;;;;;;;23.75;2.97;;;9.10;99.90;;;;;;5052794;28;20084;-81
2023/03/26 00:56:54;;;;;;;24.98;3.60;;;9.10;99.90;;;;;;5052714;28;20017;-81
2023/03/26 00:59:22;;;;;;;18.35;3.38;;;9.20;99.90;;;;;;5053215;28;20025;-82
2023/03/26 01:01:50;;;;;;;25.40;4.13;;;9.20;99.90;;;;;;5052924;28;20029;-81
2023/03/26 01:04:29;;;;;;;26.98;3.70;;;9.20;99.90;;;;;;5051847;28;20025;-80
2023/03/26 01:07:20;;;;;;;35.75;4.28;;;9.20;99.90;;;;;;5053553;28;20029;-80
2023/03/26 01:09:51;;;;;;;27.60;3.22;;;9.20;99.90;;;;;;5052064;28;20037;-82
2023/03/26 01:12:22;;;;;;;30.05;4.30;;;9.20;99.90;;;;;;5052365;28;20115;-83
2023/03/26 01:14:50;;;;;;;42.55;4.63;;;9.20;99.90;;;;;;5052671;28;20037;-81
2023/03/26 01:17:17;;;;;;;33.05;3.90;;;9.20;99.90;;;;;;5051653;28;20037;-80
2023/03/26 01:20:05;;;;;;;28.85;4.10;;;9.20;99.90;;;;;;5052019;28;20025;-82
2023/03/26 01:22:33;;;;;;;;;;;9.20;99.90;;;;;;5054082;28;20029;-82
2023/03/26 01:24:59;;;;;;;26.27;3.22;;;9.20;99.90;;;;;;5051529;28;19923;-80
2023/03/26 01:27:52;;;;;;;28.55;4.50;;;9.20;99.90;;;;;;5053458;28;20021;-81
2023/03/26 01:30:33;;;;;;;20.42;3.65;;;9.20;99.90;;;;;;5056135;28;20486;-89
2023/03/26 01:33:02;;;;;;;29.88;4.18;;;9.20;99.90;;;;;;5054102;28;20036;-80
2023/03/26 01:35:37;;;;;;;32.55;4.05;;;9.20;99.90;;;;;;5053084;28;20029;-79
2023/03/26 01:38:17;;;;;;;27.80;3.33;;;9.30;99.90;;;;;;5051819;28;20397;-79
2023/03/26 01:40:54;;;;;;;16.40;3.22;;;9.30;99.90;;;;;;5051325;28;20563;-80
2023/03/26 01:43:31;;;;;;;33.80;3.85;;;9.30;99.90;;;;;;5051697;28;20044;-79
2023/03/26 01:46:00;;;;;;;26.45;4.47;;;9.30;99.90;;;;;;5051198;28;20041;-78
2023/03/26 01:48:35;;;;;;;30.33;5.13;;;9.30;99.90;;;;;;5051642;28;20075;-79
2023/03/26 01:51:00;;;;;;;37.60;3.72;;;9.30;99.90;;;;;;5051568;28;20516;-79
2023/03/26 01:53:26;;;;;;;31.58;4.18;;;9.30;99.90;;;;;;5051679;28;20052;-79
2023/03/26 01:55:52;;;;;;;35.05;4.90;;;9.30;99.90;;;;;;5052919;28;20512;-80
2023/03/26 01:58:50;;;;;;;36.33;5.57;;;9.30;99.90;;;;;;5052856;28;20067;-79
2023/03/26 02:01:36;;;;;;;43.92;4.18;;;9.30;99.90;;;;;;5051560;28;20516;-79
2023/03/26 02:04:20;;;;;;;36.42;5.72;;;9.40;99.90;;;;;;5052922;28;20091;-79
2023/03/26 02:07:22;;;;;;;54.72;5.22;;;9.40;99.90;;;;;;5051657;28;20505;-79
2023/03/26 02:09:54;;;;;;;51.72;5.20;;;9.50;99.90;;;;;;5051531;28;20029;-78
2023/03/26 02:12:22;;;;;;;30.70;6.25;;;9.50;99.90;;;;;;5052756;28;20025;-78
2023/03/26 02:14:48;;;;;;;28.45;3.90;;;9.60;99.90;;;;;;5052777;28;20037;-78
2023/03/26 02:17:14;;;;;;;30.85;4.43;;;9.60;99.90;;;;;;5051357;28;20035;-79
2023/03/26 02:19:42;;;;;;;35.67;5.03;;;9.60;99.90;;;;;;5052732;28;20041;-79
2023/03/26 02:22:10;;;;;;;45.88;6.25;;;9.60;99.90;;;;;;5051628;28;20048;-79
2023/03/26 02:24:37;;;;;;;39.50;5.28;;;9.60;99.90;;;;;;5050949;28;20052;-79
2023/03/26 02:27:06;;;;;;;27.33;4.47;;;9.60;99.90;;;;;;5052620;28;20427;-79
2023/03/26 02:29:37;;;;;;;44.35;5.95;;;9.70;99.90;;;;;;5051069;28;20033;-79
2023/03/26 02:32:07;;;;;;;37.42;7.03;;;9.60;99.90;;;;;;5051333;28;20055;-79
2023/03/26 02:34:32;;;;;;;34.45;5.53;;;9.70;99.90;;;;;;5052783;28;20477;-78
2023/03/26 02:36:58;;;;;;;24.15;4.10;;;9.70;99.90;;;;;;5054820;28;20037;-78
2023/03/26 02:39:25;;;;;;;34.70;4.63;;;9.70;99.90;;;;;;5052290;28;20120;-78
2023/03/26 02:41:51;;;;;;;23.92;3.83;;;9.70;99.90;;;;;;5054785;28;20115;-78
2023/03/26 02:44:17;;;;;;;18.38;3.78;;;9.70;99.90;;;;;;5056362;28;20401;-79
2023/03/26 02:46:42;;;;;;;40.42;4.68;;;9.70;99.90;;;;;;5054836;28;20041;-78
2023/03/26 02:49:08;;;;;;;31.23;4.35;;;9.60;99.90;;;;;;5054877;28;20029;-78
2023/03/26 02:51:34;;;;;;;37.53;6.18;;;9.60;99.90;;;;;;5052078;28;20448;-79
2023/03/26 02:54:00;;;;;;;34.13;6.25;;;9.60;99.90;;;;;;5055964;28;20500;-79
2023/03/26 02:56:27;;;;;;;32.53;6.57;;;9.60;99.90;;;;;;5055831;28;20031;-79
2023/03/26 02:58:52;;;;;;;39.35;6.43;;;9.60;99.90;;;;;;5055951;28;20116;-79
2023/03/26 03:01:18;;;;;;;42.85;6.28;;;9.60;99.90;;;;;;5055853;28;20140;-79
2023/03/26 03:03:46;;;;;;;30.83;4.78;;;9.60;99.90;;;;;;5055811;28;20028;-79
2023/03/26 03:06:12;;;;;;;36.03;5.10;;;9.60;99.90;;;;;;5054571;28;20029;-79
2023/03/26 03:08:37;;;;;;;39.42;5.55;;;9.60;99.90;;;;;;5051489;28;20041;-79
2023/03/26 03:11:10;;;;;;;36.65;6.20;;;9.60;99.90;;;;;;5054311;28;20102;-79
2023/03/26 03:13:35;;;;;;;44.83;6.50;;;9.60;99.90;;;;;;5054518;28;20025;-79
2023/03/26 03:16:01;;;;;;;23.55;4.30;;;9.50;99.90;;;;;;5054330;28;20542;-79
2023/03/26 03:18:27;;;;;;;35.53;5.15;;;9.50;99.90;;;;;;5054225;28;20078;-79
2023/03/26 03:20:53;;;;;;;25.45;4.97;;;9.60;99.90;;;;;;5054093;28;20033;-79
2023/03/26 03:23:19;;;;;;;27.60;4.95;;;9.60;99.90;;;;;;5054136;28;20041;-79
2023/03/26 03:25:46;;;;;;;33.45;5.63;;;9.60;99.90;;;;;;5054188;28;20401;-79
2023/03/26 03:28:12;;;;;;;26.50;5.53;;;9.60;99.90;;;;;;5055253;28;20021;-79
2023/03/26 03:30:38;;;;;;;28.30;4.93;;;9.60;99.90;;;;;;5054031;28;20049;-79
2023/03/26 03:33:05;;;;;;;20.60;5.38;;;9.60;99.90;;;;;;5053903;28;20059;-79
2023/03/26 03:35:32;;;;;;;33.22;5.13;;;9.60;99.90;;;;;;5055268;28;20033;-79
2023/03/26 03:37:59;;;;;;;18.50;4.93;;;9.50;99.90;;;;;;5055205;28;20079;-80
2023/03/26 03:40:24;;;;;;;36.38;5.53;;;9.50;99.90;;;;;;5053784;28;20489;-80
2023/03/26 03:42:50;;;;;;;39.35;5.82;;;9.50;99.90;;;;;;5053767;28;20029;-77
2023/03/26 03:45:17;;;;;;;17.48;4.88;;;9.50;99.90;;;;;;5053549;28;20032;-78
2023/03/26 03:47:42;;;;;;;35.47;4.60;;;9.50;99.90;;;;;;5052920;28;20091;-79
2023/03/26 03:50:09;;;;;;;21.77;3.97;;;9.50;99.90;;;;;;5053914;28;20029;-79
2023/03/26 03:52:34;;;;;;;25.15;4.53;;;9.50;99.90;;;;;;5054870;28;20078;-78
2023/03/26 03:55:00;;;;;;;20.48;4.68;;;9.50;99.90;;;;;;5053793;28;20477;-78
2023/03/26 03:57:27;;;;;;;38.35;5.40;;;9.50;99.90;;;;;;5054827;28;20025;-78
2023/03/26 03:59:53;;;;;;;22.35;5.15;;;9.50;99.90;;;;;;5054756;28;20397;-78
2023/03/26 04:02:24;;;;;;;20.58;5.85;;;9.50;99.90;;;;;;5053531;28;20090;-79
2023/03/26 04:04:51;;;;;;;24.17;4.25;;;9.50;99.90;;;;;;5054835;28;20036;-79
2023/03/26 04:07:17;;;;;;;26.58;5.10;;;9.50;99.90;;;;;;5054658;28;20025;-79
2023/03/26 04:09:43;;;;;;;29.80;4.53;;;9.50;99.90;;;;;;5054583;28;20029;-79
2023/03/26 04:12:09;;;;;;;36.47;5.00;;;9.50;99.90;;;;;;5053158;28;20047;-79
2023/03/26 04:14:34;;;;;;;29.05;4.90;;;9.50;99.90;;;;;;5053369;28;20389;-80
2023/03/26 04:17:01;;;;;;;21.55;5.18;;;9.60;99.90;;;;;;5053305;28;20103;-79
2023/03/26 04:19:27;;;;;;;23.35;5.88;;;9.60;99.90;;;;;;5053178;28;20094;-79
2023/03/26 04:21:53;;;;;;;25.48;6.25;;;9.50;99.90;;;;;;5053244;28;20397;-80
2023/03/26 04:24:23;;;;;;;39.50;6.43;;;9.50;99.90;;;;;;5053179;28;20041;-79
2023/03/26 04:26:49;;;;;;;32.40;5.80;;;9.50;99.90;;;;;;5053036;28;20035;-79
2023/03/26 04:29:17;;;;;;;26.60;4.82;;;9.50;99.90;;;;;;5054279;28;20078;-79
2023/03/26 04:31:43;;;;;;;36.88;5.05;;;9.50;99.90;;;;;;5054172;28;20102;-80
2023/03/26 04:34:22;;;;;;;34.70;6.28;;;9.50;99.90;;;;;;5054098;28;20033;-80
2023/03/26 04:36:50;;;;;;;31.60;5.88;;;9.60;99.90;;;;;;5052708;28;20589;-80
2023/03/26 04:39:16;;;;;;;23.75;5.53;;;9.60;99.90;;;;;;5052664;28;20021;-80
2023/03/26 04:41:43;;;;;;;26.98;4.75;;;9.60;99.90;;;;;;5052686;28;20033;-78
2023/03/26 04:44:10;;;;;;;27.35;5.72;;;9.60;99.90;;;;;;5053989;28;20036;-79
2023/03/26 04:46:36;;;;;;;34.67;6.25;;;9.70;99.90;;;;;;5053505;28;20049;-79
2023/03/26 04:49:01;;;;;;;26.55;7.00;;;9.60;99.90;;;;;;5053727;28;20025;-79
2023/03/26 04:51:37;;;;;;;23.20;4.55;;;9.70;99.90;;;;;;5053618;28;20017;-79
2023/03/26 04:54:03;;;;;;;35.80;6.57;;;9.60;99.90;;;;;;5052447;28;20021;-79
2023/03/26 04:56:42;;;;;;;19.90;4.07;;;9.70;99.90;;;;;;5052535;28;20041;-79
2023/03/26 04:59:14;;;;;;;16.38;4.18;;;9.70;99.90;;;;;;5052868;28;20090;-79
2023/03/26 05:01:41;;;;;;;22.35;4.38;;;9.70;99.90;;;;;;5052373;28;20059;-79
2023/03/26 05:04:06;;;;;;;22.90;3.90;;;9.70;99.90;;;;;;5052228;28;20508;-79
2023/03/26 05:06:33;;;;;;;17.00;4.00;;;9.70;99.90;;;;;;5052118;28;20029;-79
2023/03/26 05:09:00;;;;;;;20.42;4.78;;;9.80;99.90;;;;;;5051885;28;20036;-79
2023/03/26 05:11:27;;;;;;;19.38;3.88;;;9.80;99.90;;;;;;5052189;28;20029;-78
2023/03/26 05:13:52;;;;;;;19.00;4.18;;;9.70;99.90;;;;;;5053373;28;20500;-78
2023/03/26 05:16:18;;;;;;;17.75;5.25;;;9.70;99.90;;;;;;5052050;28;20083;-78
2023/03/26 05:18:45;;;;;;;21.45;4.93;;;9.70;99.90;;;;;;5053212;28;20021;-78
2023/03/26 05:21:11;;;;;;;15.45;3.75;;;9.70;99.90;;;;;;5052229;28;20063;-78
2023/03/26 05:23:36;;;;;;;17.92;4.68;;;9.70;99.90;;;;;;5052009;28;20024;-79
2023/03/26 05:26:02;;;;;;;30.45;4.45;;;9.70;99.90;;;;;;5053088;28;20033;-79
2023/03/26 05:28:27;;;;;;;32.58;5.50;;;9.70;99.90;;;;;;5053228;28;20024;-80
2023/03/26 05:30:53;;;;;;;39.10;5.60;;;9.70;99.90;;;;;;5051983;28;20021;-79
2023/03/26 05:33:20;;;;;;;31.25;6.78;;;9.80;99.90;;;;;;5053245;28;20021;-79
2023/03/26 05:35:48;;;;;;;33.77;6.43;;;9.80;99.90;;;;;;5052917;28;20401;-79
2023/03/26 05:38:14;;;;;;;25.38;5.32;;;9.90;99.90;;;;;;5051820;28;20122;-79
2023/03/26 05:40:39;;;;;;;31.75;5.65;;;9.90;99.90;;;;;;5051810;28;20043;-79
2023/03/26 05:43:05;;;;;;;30.20;6.55;;;9.80;99.90;;;;;;5053001;28;20103;-79
2023/03/26 05:45:31;;;;;;;34.30;7.88;;;9.80;99.90;;;;;;5053023;28;20108;-79
2023/03/26 05:47:56;;;;;;;31.02;6.85;;;9.80;99.90;;;;;;5052937;28;20053;-79
2023/03/26 05:50:22;;;;;;;41.05;7.32;;;9.70;99.90;;;;;;5051495;28;20470;-79
2023/03/26 05:52:48;;;;;;;34.85;6.65;;;9.70;99.90;;;;;;5051446;28;20021;-79
2023/03/26 05:55:13;;;;;;;22.70;5.20;;;9.70;99.90;;;;;;5052982;28;20036;-79
2023/03/26 05:57:40;;;;;;;24.33;4.63;;;9.60;99.90;;;;;;5051632;28;20536;-79
2023/03/26 06:00:10;;;;;;;38.58;6.93;;;9.60;99.90;;;;;;5051113;28;20037;-79
2023/03/26 06:02:35;;;;;;;31.23;6.93;;;9.60;99.90;;;;;;5051512;28;20154;-79
2023/03/26 06:05:03;;;;;;;34.15;6.47;;;9.60;99.90;;;;;;5052764;28;20067;-79
2023/03/26 06:07:30;;;;;;;33.03;6.43;;;9.60;99.90;;;;;;5051690;28;20028;-79
2023/03/26 06:09:55;;;;;;;29.65;5.45;;;9.60;99.90;;;;;;5052540;28;20270;-80
2023/03/26 06:12:21;;;;;;;30.25;7.50;;;9.60;99.90;;;;;;5055607;28;20396;-79
2023/03/26 06:14:47;;;;;;;27.77;5.93;;;9.50;99.90;;;;;;5056638;28;20436;-79
2023/03/26 06:17:12;;;;;;;38.30;7.47;;;9.50;99.90;;;;;;5056832;28;20032;-79
2023/03/26 06:19:38;;;;;;;32.60;5.97;;;9.50;99.90;;;;;;5055515;28;20043;-79
2023/03/26 06:22:04;;;;;;;35.20;6.00;;;9.50;99.90;;;;;;5055438;28;20098;-79
2023/03/26 06:24:31;;;;;;;29.35;5.80;;;9.50;99.90;;;;;;5056453;28;20056;-79
2023/03/26 06:26:56;;;;;;;21.85;5.68;;;9.50;99.90;;;;;;5056678;28;20540;-79
2023/03/26 06:29:22;;;;;;;29.20;5.28;;;9.40;99.90;;;;;;5056425;28;20029;-79
2023/03/26 06:31:48;;;;;;;20.02;4.78;;;9.30;99.90;;;;;;5055469;28;20025;-82
2023/03/26 06:34:14;;;;;;;30.35;5.95;;;9.30;99.90;;;;;;5056909;28;20074;-81
2023/03/26 06:36:39;;;;;;;28.50;5.80;;;9.30;99.90;;;;;;5056710;28;20025;-81
2023/03/26 06:39:05;;;;;;;27.50;5.32;;;9.30;99.90;;;;;;5055905;28;20059;-82
2023/03/26 06:41:33;;;;;;;39.47;5.97;;;9.30;99.90;;;;;;5057194;28;20066;-81
2023/03/26 06:44:00;;;;;;;33.72;7.18;;;9.30;99.90;;;;;;5056689;28;20364;-81
2023/03/26 06:46:26;;;;;;;33.97;6.00;;;9.30;99.90;;;;;;5056097;28;20049;-80
2023/03/26 06:48:52;;;;;;;26.90;5.95;;;9.20;99.90;;;;;;5056229;28;20021;-80
2023/03/26 06:51:17;;;;;;;23.52;4.82;;;9.20;99.90;;;;;;5056251;28;20048;-80
2023/03/26 06:53:43;;;;;;;34.83;6.32;;;9.20;99.90;;;;;;5056019;28;20029;-80
2023/03/26 06:56:09;;;;;;;31.23;5.38;;;9.30;99.90;;;;;;5055074;28;20032;-80
2023/03/26 06:58:35;;;;;;;33.42;6.95;;;9.30;99.90;;;;;;5055255;28;20064;-80
2023/03/26 07:01:00;;;;;;;24.73;6.55;;;9.40;99.90;;;;;;5054628;28;20045;-80
2023/03/26 07:03:26;;;;;;;23.95;6.25;;;9.40;99.90;;;;;;5054608;28;20083;-80
2023/03/26 07:05:52;;;;;;;24.90;6.40;;;9.40;99.90;;;;;;5054596;28;20116;-80
2023/03/26 07:08:18;;;;;;;30.05;6.20;;;9.40;99.90;;;;;;5054626;28;20056;-81
2023/03/26 07:10:46;;;;;;;39.00;6.78;;;9.40;99.90;;;;;;5055804;28;20083;-79
2023/03/26 07:13:12;;;;;;;27.63;6.70;;;9.40;99.90;;;;;;5054364;28;20033;-80
2023/03/26 07:15:37;;;;;;;36.10;8.27;;;9.40;99.90;;;;;;5054270;28;20086;-80
2023/03/26 07:18:03;;;;;;;35.28;6.63;;;9.40;99.90;;;;;;5054113;28;20509;-80
2023/03/26 07:20:29;;;;;;;37.85;6.75;;;9.50;99.90;;;;;;5054342;28;20500;-80
2023/03/26 07:22:55;;;;;;;37.72;6.78;;;9.50;99.90;;;;;;5054636;28;20082;-80
2023/03/26 07:25:21;;;;;;;39.30;8.48;;;9.50;99.90;;;;;;5053955;28;20464;-80
2023/03/26 07:28:10;;;;;;;39.05;7.97;;;9.60;99.90;;;;;;5053966;28;20027;-80
2023/03/26 07:30:55;;;;;;;23.75;6.30;;;9.70;99.90;;;;;;5054092;28;20389;-79
2023/03/26 07:33:34;;;;;;;38.88;9.38;;;9.60;99.90;;;;;;5053971;28;20166;-79
2023/03/26 07:36:42;;;;;;;40.03;7.68;;;9.70;99.90;;;;;;5054137;28;20025;-79
2023/03/26 07:39:07;;;;;;;34.15;8.18;;;9.70;99.90;;;;;;5034769;28;20041;-82
2023/03/26 07:42:08;;;;;;;31.10;8.82;;;9.70;99.90;;;;;;5054153;28;20040;-82
2023/03/26 07:44:57;;;;;;;39.88;8.13;;;9.70;99.90;;;;;;5019681;28;20036;-83
2023/03/26 07:47:31;;;;;;;20.90;6.88;;;9.70;99.90;;;;;;5054368;28;20111;-79
2023/03/26 07:49:57;;;;;;;37.38;8.57;;;9.70;99.90;;;;;;5053500;28;20117;-79
2023/03/26 07:52:24;;;;;;;35.00;8.40;;;9.60;99.90;;;;;;5053390;28;20040;-79
2023/03/26 07:54:51;;;;;;;33.55;10.10;;;9.70;99.90;;;;;;5054814;28;20025;-80
2023/03/26 07:57:24;;;;;;;43.55;10.18;;;9.70;99.90;;;;;;5054803;28;20032;-79
2023/03/26 08:00:00;;;;;;;42.25;9.88;;;9.80;99.90;;;;;;5054869;28;20078;-79
2023/03/26 08:02:38;;;;;;;34.25;7.97;;;9.70;99.90;;;;;;5053543;28;20025;-79
2023/03/26 08:05:09;;;;;;;;;;;9.70;99.90;;;;;;5055033;28;20488;-80
2023/03/26 08:07:51;;;;;;;48.25;9.73;;;9.70;99.90;;;;;;5053459;28;20284;-79
2023/03/26 08:10:32;;;;;;;48.03;8.85;;;9.70;99.90;;;;;;5054504;28;20071;-80
2023/03/26 08:13:09;;;;;;;42.08;7.53;;;9.70;99.90;;;;;;5054593;28;20424;-78
2023/03/26 08:16:30;;;;;;;52.85;8.45;;;9.70;99.90;;;;;;5053135;28;20033;-79
2023/03/26 08:19:10;;;;;;;32.97;7.65;;;9.60;99.90;;;;;;4976487;28;20035;-79
2023/03/26 08:21:57;;;;;;;46.38;9.50;;;9.60;99.90;;;;;;5047801;28;20401;-79
2023/03/26 08:24:58;;;;;;;36.78;8.82;;;9.60;99.90;;;;;;5054456;28;20489;-80
2023/03/26 08:28:13;;;;;;;37.80;8.63;;;9.60;99.90;;;;;;5054636;28;20497;-79
2023/03/26 08:30:40;;;;;;;43.83;9.40;;;9.60;99.90;;;;;;5035544;28;20033;-78
2023/03/26 08:33:15;;;;;;;35.45;8.90;;;9.60;99.90;;;;;;5054125;28;20024;-83
2023/03/26 08:35:42;;;;;;;40.45;9.35;;;9.60;99.90;;;;;;5054589;28;20044;-83
2023/03/26 08:38:09;;;;;;;36.72;9.60;;;9.50;99.90;;;;;;5058083;28;20123;-88
2023/03/26 08:40:50;;;;;;;27.83;8.80;;;9.40;99.90;;;;;;5056721;28;20029;-87
2023/03/26 08:43:49;;;;;;;38.47;9.60;;;9.40;99.90;;;;;;5053855;28;20041;-85
2023/03/26 08:46:36;;;;;;;42.95;9.63;;;9.30;99.90;;;;;;5055780;28;20124;-84
2023/03/26 08:49:39;;;;;;;32.20;7.72;;;9.20;99.90;;;;;;5055174;28;20108;-85
2023/03/26 08:52:35;;;;;;;43.92;9.63;;;9.20;99.90;;;;;;5056222;28;20029;-85
2023/03/26 08:55:25;;;;;;;40.25;9.10;;;9.20;99.90;;;;;;5048764;28;20025;-86
2023/03/26 08:58:07;;;;;;;45.63;9.77;;;9.20;99.90;;;;;;5056021;28;20043;-86
2023/03/26 09:00:58;;;;;;;30.20;8.18;;;9.10;99.90;;;;;;5055757;28;20473;-86
2023/03/26 09:03:40;;;;;;;24.50;6.80;;;8.90;99.90;;;;;;5052891;28;20032;-84
2023/03/26 09:06:30;;;;;;;37.78;8.35;;;8.80;99.90;;;;;;5052451;28;20066;-81
2023/03/26 09:09:36;;;;;;;30.23;7.40;;;8.70;99.90;;;;;;5053462;28;20017;-84
2023/03/26 09:12:24;;;;;;;18.38;7.15;;;8.70;99.90;;;;;;5052213;28;20033;-87
2023/03/26 09:15:15;;;;;;;41.63;8.82;;;8.60;99.90;;;;;;5053987;28;20025;-88
2023/03/26 09:17:56;;;;;;;34.58;7.60;;;8.80;99.90;;;;;;5036607;28;20029;-87
2023/03/26 09:20:41;;;;;;;27.73;7.18;;;8.70;99.90;;;;;;5048220;28;20036;-86
2023/03/26 09:23:28;;;;;;;32.85;8.90;;;8.80;99.90;;;;;;5054691;28;20029;-88
2023/03/26 09:26:31;;;;;;;22.48;6.93;;;8.80;99.90;;;;;;5055396;28;20033;-88
2023/03/26 09:29:24;;;;;;;24.05;7.25;;;8.70;99.90;;;;;;5053519;28;20033;-87
2023/03/26 09:32:05;;;;;;;19.70;6.50;;;8.60;99.90;;;;;;5055945;28;20055;-89
2023/03/26 09:34:33;;;;;;;19.75;7.25;;;8.50;99.90;;;;;;5057352;28;20053;-90
2023/03/26 09:37:26;;;;;;;20.50;6.88;;;8.50;99.90;;;;;;5056443;28;20111;-89
2023/03/26 09:40:24;;;;;;;24.50;6.60;;;8.60;99.90;;;;;;5055135;28;20074;-89
2023/03/26 09:42:57;;;;;;;32.80;7.43;;;8.50;99.90;;;;;;5051746;28;20044;-81
2023/03/26 09:45:56;;;;;;;28.90;8.00;;;8.50;99.90;;;;;;5051213;28;20116;-80
2023/03/26 09:48:52;;;;;;;23.05;7.00;;;8.50;99.90;;;;;;5048184;28;20559;-79
2023/03/26 09:51:37;;;;;;;29.05;6.70;;;8.60;99.90;;;;;;5046801;28;20068;-78
2023/03/26 09:54:37;;;;;;;21.48;5.50;;;8.60;99.90;;;;;;5051544;28;20052;-81
2023/03/26 09:57:34;;;;;;;24.05;6.38;;;8.50;99.90;;;;;;5037365;28;20025;-83
2023/03/26 10:00:12;;;;;;;22.95;6.93;;;8.50;99.90;;;;;;5044852;28;20075;-84
2023/03/26 10:03:03;;;;;;;23.05;6.72;;;8.50;99.90;;;;;;5044487;28;20195;-85
2023/03/26 10:05:46;;;;;;;24.27;6.90;;;8.50;99.90;;;;;;5043209;28;20037;-84
2023/03/26 10:08:15;;;;;;;21.45;7.18;;;8.60;99.90;;;;;;5047302;28;20041;-84
2023/03/26 10:10:51;;;;;;;15.15;6.28;;;8.50;99.90;;;;;;5049330;28;20025;-82
2023/03/26 10:13:20;;;;;;;17.30;5.85;;;8.60;99.90;;;;;;5046037;28;20022;-86
2023/03/26 10:16:10;;;;;;;18.70;5.85;;;8.60;99.90;;;;;;5034297;28;20481;-86
2023/03/26 10:19:05;;;;;;;13.60;4.47;;;8.60;99.90;;;;;;5033781;28;20088;-87
2023/03/26 10:21:46;;;;;;;21.00;5.30;;;8.60;99.90;;;;;;5031959;28;20063;-87
2023/03/26 10:24:47;;;;;;;23.05;6.07;;;8.60;99.90;;;;;;5033206;28;20036;-87
2023/03/26 10:27:27;;;;;;;17.55;5.47;;;8.60;99.90;;;;;;5033680;28;20029;-89
2023/03/26 10:30:40;;;;;;;14.18;5.20;;;8.60;99.90;;;;;;5035120;28;20057;-89
2023/03/26 10:33:21;;;;;;;20.83;4.75;;;8.70;99.90;;;;;;5013247;28;20026;-86
2023/03/26 10:35:54;;;;;;;17.13;4.22;;;8.70;99.90;;;;;;4996091;28;20136;-86
2023/03/26 10:38:48;;;;;;;13.38;4.22;;;8.70;99.90;;;;;;5018693;28;20553;-88
2023/03/26 10:41:50;;;;;;;18.48;4.93;;;8.60;99.90;;;;;;5035415;28;20050;-87
2023/03/26 10:44:44;;;;;;;16.23;4.50;;;8.60;99.90;;;;;;5050397;28;20037;-88
2023/03/26 10:47:28;;;;;;;14.15;3.42;;;8.50;99.90;;;;;;5033472;28;20049;-89
2023/03/26 10:50:09;;;;;;;20.00;5.03;;;8.50;99.90;;;;;;5046034;28;20474;-89
2023/03/26 10:52:51;;;;;;;22.95;4.07;;;8.50;99.90;;;;;;5053315;28;20032;-89
2023/03/26 10:55:21;;;;;;;23.85;4.35;;;8.40;99.90;;;;;;5052986;28;20032;-88
2023/03/26 10:58:22;;;;;;;9.20;2.85;;;8.40;99.90;;;;;;5054772;28;20032;-88
2023/03/26 11:01:02;;;;;;;17.02;3.28;;;8.50;99.90;;;;;;5058336;28;20036;-89
2023/03/26 11:03:51;;;;;;;34.08;4.28;;;8.50;99.90;;;;;;5058718;28;20021;-87
2023/03/26 11:06:24;;;;;;;19.40;3.60;;;8.60;99.90;;;;;;5058497;28;20065;-87
2023/03/26 11:08:52;;;;;;;22.98;4.55;;;8.60;99.90;;;;;;5059357;28;20025;-87
2023/03/26 11:11:30;;;;;;;15.80;3.97;;;8.60;99.90;;;;;;5056801;28;20029;-87
2023/03/26 11:14:19;;;;;;;;;;;8.70;99.90;;;;;;5056983;28;20028;-89
2023/03/26 11:17:14;;;;;;;17.35;3.50;;;8.90;99.90;;;;;;5059479;28;20288;-89
2023/03/26 11:19:53;;;;;;;20.38;2.75;;;8.90;99.90;;;;;;5055846;28;20029;-88
2023/03/26 11:22:21;;;;;;;24.20;3.05;;;8.90;99.90;;;;;;5057945;28;20040;-87
2023/03/26 11:24:55;;;;;;;10.68;2.78;;;8.90;99.90;;;;;;5058138;28;20048;-89
2023/03/26 11:27:40;;;;;;;19.52;2.97;;;8.80;99.90;;;;;;5056651;28;20493;-89
2023/03/26 11:30:19;;;;;;;21.67;2.72;;;8.80;99.90;;;;;;5055864;28;20017;-87
2023/03/26 11:32:49;;;;;;;15.93;2.80;;;8.80;99.90;;;;;;5056125;28;20389;-88
2023/03/26 11:35:25;;;;;;;12.35;2.95;;;8.70;99.90;;;;;;5055992;28;20026;-88
2023/03/26 11:37:57;;;;;;;17.90;2.40;;;8.70;99.90;;;;;;5054588;28;20132;-86
2023/03/26 11:40:37;;;;;;;8.23;2.17;;;8.80;99.90;;;;;;5056393;28;20044;-87
2023/03/26 11:43:07;;;;;;;12.63;2.90;;;8.90;99.90;;;;;;5055341;28;20033;-87
2023/03/26 11:45:41;;;;;;;15.68;2.78;;;8.90;99.90;;;;;;5054419;28;20110;-86
2023/03/26 11:48:15;;;;;;;14.52;2.67;;;8.90;99.90;;;;;;5054811;28;20044;-86
2023/03/26 11:50:46;;;;;;;17.25;3.25;;;8.80;99.90;;;;;;5056173;28;20025;-87
2023/03/26 11:53:16;;;;;;;13.35;2.45;;;8.70;99.90;;;;;;5055136;28;20483;-87
2023/03/26 11:56:16;;;;;;;15.15;2.75;;;8.70;99.90;;;;;;5055051;28;20024;-86
2023/03/26 11:58:47;;;;;;;14.27;2.90;;;8.80;99.90;;;;;;5042541;28;20513;-85
2023/03/26 12:01:39;;;;;;;18.42;2.83;;;8.80;99.90;;;;;;5054177;28;20118;-86
2023/03/26 12:04:14;;;;;;;10.05;3.05;;;8.80;99.90;;;;;;5055359;28;20033;-85
2023/03/26 12:06:55;;;;;;;13.82;2.85;;;9.00;99.90;;;;;;5055449;28;20389;-85
2023/03/26 12:09:21;;;;;;;21.20;2.65;;;9.10;99.90;;;;;;5054643;28;20028;-84
2023/03/26 12:11:49;;;;;;;13.10;3.08;;;9.10;99.90;;;;;;5055088;28;20028;-84
2023/03/26 12:14:23;;;;;;;18.55;2.47;;;9.10;99.90;;;;;;5054692;28;20371;-84
2023/03/26 12:17:07;;;;;;;19.67;3.88;;;9.20;99.90;;;;;;5054514;28;20029;-83
2023/03/26 12:19:44;;;;;;;16.40;3.50;;;9.30;99.90;;;;;;5049597;28;20033;-85
2023/03/26 12:22:36;;;;;;;20.87;3.13;;;9.50;99.90;;;;;;5044261;28;20373;-84
2023/03/26 12:25:14;;;;;;;16.15;2.40;;;9.70;99.90;;;;;;5034837;28;20088;-83
2023/03/26 12:27:47;;;;;;;9.48;2.35;;;9.80;99.90;;;;;;5034509;28;20025;-83
2023/03/26 12:30:29;;;;;;;9.52;2.13;;;10.00;99.90;;;;;;5034723;28;20033;-84
2023/03/26 12:33:03;;;;;;;13.00;2.10;;;10.00;99.90;;;;;;5049866;28;20551;-84
2023/03/26 12:35:33;;;;;;;18.45;2.35;;;10.10;99.90;;;;;;5049830;28;20030;-83
2023/03/26 12:38:20;;;;;;;7.88;1.85;;;10.10;99.90;;;;;;5049153;28;20037;-83
2023/03/26 12:40:47;;;;;;;9.27;1.65;;;10.20;99.90;;;;;;5032936;28;20488;-84
2023/03/26 12:43:21;;;;;;;25.48;3.13;;;10.20;99.90;;;;;;5049349;28;20136;-84
2023/03/26 12:45:52;;;;;;;18.48;2.30;;;10.30;99.90;;;;;;5049213;28;20482;-83
2023/03/26 12:48:18;;;;;;;16.52;1.80;;;10.40;99.90;;;;;;5033916;28;20437;-82
2023/03/26 12:51:11;;;;;;;11.85;2.25;;;10.50;99.90;;;;;;5033920;28;20052;-82
2023/03/26 12:54:05;;;;;;;9.10;1.60;;;10.30;99.90;;;;;;5049183;28;20031;-81
2023/03/26 12:56:42;;;;;;;6.70;1.50;;;10.20;99.90;;;;;;5032508;28;20124;-82
2023/03/26 12:59:29;;;;;;;9.43;1.50;;;10.10;99.90;;;;;;5032533;28;20033;-82
2023/03/26 13:02:19;;;;;;;13.53;1.97;;;10.10;99.90;;;;;;5033686;28;20410;-79
2023/03/26 13:04:55;;;;;;;8.27;1.58;;;10.10;99.90;;;;;;5032431;28;20026;-82
2023/03/26 13:07:28;;;;;;;9.88;1.55;;;10.30;99.90;;;;;;5033890;28;20022;-82
2023/03/26 13:10:24;;;;;;;13.27;3.33;;;10.40;99.90;;;;;;5032371;28;20032;-83
2023/03/26 13:13:05;;;;;;;13.43;2.75;;;10.50;99.90;;;;;;5033574;28;20033;-82
2023/03/26 13:15:35;;;;;;;14.25;1.80;;;10.50;99.90;;;;;;5031879;28;20041;-82
2023/03/26 13:18:06;;;;;;;11.65;1.83;;;10.40;99.90;;;;;;5033584;28;20029;-82
2023/03/26 13:21:07;;;;;;;17.00;1.88;;;10.30;99.90;;;;;;5032712;28;20079;-81
2023/03/26 13:23:39;;;;;;;15.68;1.52;;;10.30;99.90;;;;;;4975423;28;20116;-81